Time;durP1;ratioP1;P1;durP2;ratioP2;P2;SDS_P1;SDS_P2;PMS_P1;PMS_P2;Temp;Humidity;BMP_temperature;BMP_pressure;BME280_temperature;BME280_humidity;BME280_pressure;Samples;Min_cycle;Max_cycle;Signal;HPM_P1;HPM_P2
2023/03/30 00:00:37;;;;;;;23.13;11.00;;;;;;;7.67;58.53;100931.06;5108621;28;20143;-72
2023/03/30 00:03:03;;;;;;;17.40;11.43;;;;;;;7.83;58.21;100949.59;5109966;28;20438;-72
2023/03/30 00:05:29;;;;;;;17.65;10.30;;;;;;;7.82;58.82;100945.19;5109288;28;20106;-72
2023/03/30 00:07:54;;;;;;;16.63;10.52;;;;;;;7.43;58.62;100875.75;5109144;28;20107;-72
2023/03/30 00:10:20;;;;;;;19.63;9.60;;;;;;;7.81;58.05;100938.16;5108665;28;20122;-72
2023/03/30 00:12:49;;;;;;;21.45;11.18;;;;;;;7.76;58.61;100937.59;5108521;28;20028;-71
2023/03/30 00:15:17;;;;;;;17.40;10.02;;;;;;;7.70;58.46;100930.84;5107995;28;20039;-72
2023/03/30 00:17:43;;;;;;;19.08;10.07;;;;;;;7.76;58.94;100940.25;5106411;28;20019;-71
2023/03/30 00:20:10;;;;;;;19.00;9.38;;;;;;;7.73;58.99;100938.66;5108495;28;20035;-71
2023/03/30 00:22:40;;;;;;;18.10;8.93;;;;;;;7.58;59.45;100907.63;5108080;28;20031;-72
2023/03/30 00:25:09;;;;;;;14.55;9.25;;;;;;;7.70;59.32;100932.69;5106045;28;20032;-73
2023/03/30 00:27:38;;;;;;;16.73;10.45;;;;;;;7.59;59.93;100916.50;5108103;28;20059;-72
2023/03/30 00:30:07;;;;;;;16.10;9.02;;;;;;;7.68;59.90;100932.78;5108192;28;20364;-73
2023/03/30 00:32:33;;;;;;;25.65;9.93;;;;;;;7.60;59.53;100913.72;5106111;28;20028;-72
2023/03/30 00:34:59;;;;;;;16.70;9.32;;;;;;;7.57;59.53;100905.06;5108342;28;20435;-72
2023/03/30 00:37:24;;;;;;;18.15;9.60;;;;;;;7.63;59.86;100918.00;5107922;28;20031;-72
2023/03/30 00:39:52;;;;;;;16.08;8.93;;;;;;;7.55;59.54;100907.84;5107447;28;20529;-72
2023/03/30 00:42:20;;;;;;;17.25;8.60;;;;;;;7.41;59.79;100877.69;5107653;28;20036;-72
2023/03/30 00:45:16;;;;;;;14.85;8.95;;;;;;;7.62;60.14;100914.50;5107623;28;20705;-72
2023/03/30 00:47:54;;;;;;;16.40;9.32;;;;;;;7.57;60.05;100902.38;5106662;28;20506;-72
2023/03/30 00:50:22;;;;;;;16.90;9.15;;;;;;;7.61;59.39;100911.94;5107752;28;20501;-72
2023/03/30 00:52:51;;;;;;;13.93;8.85;;;;;;;7.54;59.40;100886.59;5107571;28;20482;-72
2023/03/30 00:55:19;;;;;;;15.52;8.93;;;;;;;7.61;59.16;100895.91;5106489;28;20123;-72
2023/03/30 00:57:46;;;;;;;15.15;9.85;;;;;;;7.49;59.33;100875.38;5107409;28;20024;-72
2023/03/30 01:00:13;;;;;;;17.20;9.95;;;;;;;7.55;58.84;100881.16;5107724;28;20031;-70
2023/03/30 01:02:44;;;;;;;17.90;9.60;;;;;;;7.62;59.60;100890.47;5107029;28;20031;-72
2023/03/30 01:05:10;;;;;;;15.32;9.13;;;;;;;7.62;58.92;100886.94;5107113;28;20030;-73
2023/03/30 01:07:39;;;;;;;16.35;9.45;;;;;;;7.60;59.57;100895.06;5107242;28;20518;-72
2023/03/30 01:10:07;;;;;;;15.90;9.65;;;;;;;7.54;59.66;100878.59;5107099;28;20038;-72
2023/03/30 01:12:33;;;;;;;20.25;9.20;;;;;;;7.49;59.29;100872.69;5107034;28;20055;-72
2023/03/30 01:14:58;;;;;;;17.60;10.02;;;;;;;7.55;59.18;100877.63;5107386;28;20062;-72
2023/03/30 01:17:53;;;;;;;19.80;9.55;;;;;;;7.60;59.35;100895.06;5105264;28;20046;-72
2023/03/30 01:20:41;;;;;;;15.40;8.98;;;;;;;7.61;59.81;100894.09;5106113;28;20034;-72
2023/03/30 01:23:28;;;;;;;18.88;10.45;;;;;;;7.63;59.50;100885.97;5107042;28;20077;-72
2023/03/30 01:26:12;;;;;;;19.00;9.98;;;;;;;7.64;59.66;100885.88;5106380;28;20083;-72
2023/03/30 01:28:54;;;;;;;24.45;10.63;;;;;;;7.51;59.47;100863.63;5106221;28;20042;-72
2023/03/30 01:31:41;;;;;;;23.23;12.07;;;;;;;7.64;59.33;100885.03;5106720;28;20494;-72
2023/03/30 01:34:09;;;;;;;25.13;12.48;;;;;;;7.63;59.24;100877.97;5105336;28;20034;-72
2023/03/30 01:37:03;;;;;;;24.95;12.10;;;;;;;7.63;59.34;100870.81;5105607;28;20022;-72
2023/03/30 01:39:57;;;;;;;33.43;14.30;;;;;;;7.65;59.31;100881.41;5104898;28;20039;-72
2023/03/30 01:42:25;;;;;;;27.30;12.75;;;;;;;7.65;59.15;100866.25;5104736;28;20024;-72
2023/03/30 01:45:09;;;;;;;22.13;11.77;;;;;;;7.55;59.25;100857.16;5105712;28;20015;-72
2023/03/30 01:47:48;;;;;;;19.42;9.57;;;;;;;7.66;59.72;100875.09;5105854;28;20885;-71
2023/03/30 01:50:37;;;;;;;20.65;10.82;;;;;;;7.57;59.97;100862.34;5106143;28;20028;-72
2023/03/30 01:53:05;;;;;;;18.98;10.45;;;;;;;7.63;59.48;100865.47;5105790;28;20061;-72
2023/03/30 01:55:40;;;;;;;19.08;10.88;;;;;;;7.61;59.61;100850.53;5102629;28;20028;-72
2023/03/30 01:58:13;;;;;;;18.38;11.80;;;;;;;7.66;59.37;100856.41;5105205;28;20567;-72
2023/03/30 02:00:42;;;;;;;18.30;9.88;;;;;;;7.67;59.68;100858.13;5106275;28;20023;-73
2023/03/30 02:03:15;;;;;;;18.45;10.95;;;;;;;7.58;59.85;100843.56;5106431;28;20475;-73
2023/03/30 02:05:44;;;;;;;18.42;9.63;;;;;;;7.53;60.63;100837.69;5105629;28;20031;-73
2023/03/30 02:08:18;;;;;;;16.67;9.57;;;;;;;7.58;60.50;100846.25;5105882;28;20031;-73
2023/03/30 02:10:46;;;;;;;17.48;10.00;;;;;;;7.58;59.96;100843.56;5106276;28;20023;-72
2023/03/30 02:13:14;;;;;;;21.00;12.90;;;;;;;7.64;60.25;100853.00;5104469;28;20915;-72
2023/03/30 02:15:47;;;;;;;22.75;10.40;;;;;;;7.65;61.06;100855.56;5105446;28;20035;-73
2023/03/30 02:18:13;;;;;;;21.55;11.40;;;;;;;7.58;60.59;100842.72;5106007;28;20085;-72
2023/03/30 02:20:39;;;;;;;19.15;11.57;;;;;;;7.55;60.74;100838.47;5105672;28;20050;-71
2023/03/30 02:23:06;;;;;;;21.45;12.00;;;;;;;7.52;60.96;100840.47;5106077;28;20024;-72
2023/03/30 02:25:35;;;;;;;19.73;12.02;;;;;;;7.61;60.82;100855.88;5106643;28;20054;-72
2023/03/30 02:28:01;;;;;;;19.92;12.50;;;;;;;7.43;60.78;100819.72;5104660;28;20533;-71
2023/03/30 02:30:32;;;;;;;18.48;11.10;;;;;;;7.49;60.70;100838.88;5105898;28;20209;-72
2023/03/30 02:32:58;;;;;;;17.17;10.32;;;;;;;7.41;60.73;100835.84;5107873;28;20035;-72
2023/03/30 02:35:56;;;;;;;19.73;10.75;;;;;;;7.55;60.68;100856.28;5110861;28;20023;-77
2023/03/30 02:38:29;;;;;;;18.85;10.25;;;;;;;7.49;60.78;100835.34;5107912;28;20027;-78
2023/03/30 02:40:55;;;;;;;17.33;10.63;;;;;;;7.62;60.33;100858.44;5108610;28;20486;-78
2023/03/30 02:43:29;;;;;;;17.52;10.80;;;;;;;7.63;61.17;100856.59;5109597;28;20040;-76
2023/03/30 02:46:25;;;;;;;19.75;11.30;;;;;;;7.54;60.42;100836.72;5109020;28;20023;-78
2023/03/30 02:48:54;;;;;;;16.08;10.20;;;;;;;7.62;60.65;100841.56;5107892;28;20100;-77
2023/03/30 02:51:50;;;;;;;18.08;11.82;;;;;;;7.52;60.70;100825.31;5110498;28;20031;-77
2023/03/30 02:54:27;;;;;;;18.90;10.20;;;;;;;7.66;60.80;100843.91;5110102;28;20391;-78
2023/03/30 02:57:24;;;;;;;16.00;9.30;;;;;;;7.62;60.37;100828.22;5110606;28;20410;-77
2023/03/30 03:00:00;;;;;;;16.10;8.05;;;;;;;7.57;60.16;100833.84;5107967;28;20062;-77
2023/03/30 03:02:36;;;;;;;17.88;8.70;;;;;;;7.39;59.90;100794.22;5108512;28;20489;-77
2023/03/30 03:05:03;;;;;;;13.93;7.93;;;;;;;7.62;60.22;100830.88;5110289;28;20474;-77
2023/03/30 03:07:31;;;;;;;14.82;7.70;;;;;;;7.49;60.24;100811.31;5108723;28;20027;-77
2023/03/30 03:09:56;;;;;;;13.15;7.88;;;;;;;7.45;60.21;100801.81;5110029;28;20394;-77
2023/03/30 03:12:22;;;;;;;13.93;7.95;;;;;;;7.52;60.14;100811.97;5110981;28;20038;-77
2023/03/30 03:14:47;;;;;;;13.65;7.95;;;;;;;7.49;60.64;100820.19;5108555;28;20102;-77
2023/03/30 03:17:17;;;;;;;18.23;8.88;;;;;;;7.54;60.60;100820.72;5109821;28;20049;-78
2023/03/30 03:19:42;;;;;;;14.95;8.50;;;;;;;7.54;60.05;100826.06;5109714;28;20028;-77
2023/03/30 03:22:08;;;;;;;13.63;7.45;;;;;;;7.38;60.37;100803.19;5110028;28;20024;-78
2023/03/30 03:24:37;;;;;;;18.10;7.93;;;;;;;7.53;60.67;100840.38;5110443;28;20104;-78
2023/03/30 03:27:03;;;;;;;17.65;7.90;;;;;;;7.44;60.94;100818.75;5108193;28;20482;-78
2023/03/30 03:29:28;;;;;;;12.40;7.50;;;;;;;7.46;60.43;100816.84;5107858;28;20052;-78
2023/03/30 03:31:54;;;;;;;15.38;7.68;;;;;;;7.33;60.77;100799.97;5108608;28;20093;-77
2023/03/30 03:34:19;;;;;;;17.33;8.68;;;;;;;7.43;60.85;100833.94;5109501;28;20023;-78
2023/03/30 03:36:45;;;;;;;15.20;8.20;;;;;;;7.46;60.50;100824.88;5107936;28;20498;-78
2023/03/30 03:39:10;;;;;;;14.48;7.78;;;;;;;7.49;61.07;100838.00;5107798;28;20028;-78
2023/03/30 03:41:36;;;;;;;16.75;8.85;;;;;;;7.47;60.81;100830.09;5107592;28;20567;-78
2023/03/30 03:44:01;;;;;;;14.05;8.98;;;;;;;7.46;61.24;100823.06;5107469;28;20034;-78
2023/03/30 03:46:27;;;;;;;15.00;8.82;;;;;;;7.30;61.43;100803.69;5107998;28;20063;-78
2023/03/30 03:48:52;;;;;;;19.05;8.98;;;;;;;7.46;60.80;100840.88;5108974;28;20551;-77
2023/03/30 03:51:18;;;;;;;13.52;7.82;;;;;;;7.34;61.26;100812.34;5108539;28;20076;-72
2023/03/30 03:53:43;;;;;;;16.40;8.98;;;;;;;7.39;61.92;100819.09;5108143;28;20028;-72
2023/03/30 03:56:10;;;;;;;13.63;8.15;;;;;;;7.35;61.52;100800.72;5108673;28;20051;-72
2023/03/30 03:58:36;;;;;;;14.90;8.27;;;;;;;7.38;61.71;100816.53;5108420;28;20062;-72
2023/03/30 04:01:01;;;;;;;13.93;8.40;;;;;;;7.28;61.79;100820.78;5107999;28;20023;-72
2023/03/30 04:03:28;;;;;;;13.77;8.05;;;;;;;7.36;62.59;100831.78;5106063;28;20091;-72
2023/03/30 04:05:56;;;;;;;13.10;7.72;;;;;;;7.28;62.68;100828.78;5102402;28;20463;-71
2023/03/30 04:08:22;;;;;;;13.15;8.55;;;;;;;7.40;62.60;100828.81;5105065;28;20386;-72
2023/03/30 04:10:47;;;;;;;19.00;9.00;;;;;;;7.24;63.42;100795.22;5107416;28;20032;-72
2023/03/30 04:13:13;;;;;;;17.55;9.93;;;;;;;7.26;63.21;100798.66;5106234;28;20027;-72
2023/03/30 04:15:38;;;;;;;18.67;10.05;;;;;;;7.31;63.74;100813.41;5105871;27;20039;-73
2023/03/30 04:18:04;;;;;;;16.90;8.65;;;;;;;7.02;63.99;100778.97;5104857;27;20031;-72
2023/03/30 04:20:29;;;;;;;14.57;8.52;;;;;;;7.30;64.40;100845.50;5106438;27;20027;-73
2023/03/30 04:22:55;;;;;;;18.17;9.82;;;;;;;7.25;64.60;100834.31;5107106;27;20015;-73
2023/03/30 04:25:24;;;;;;;15.43;9.18;;;;;;;7.19;64.42;100818.72;5105420;28;20470;-73
2023/03/30 04:27:53;;;;;;;17.63;10.27;;;;;;;7.18;65.02;100816.97;5105157;27;20027;-72
2023/03/30 04:30:21;;;;;;;18.45;11.00;;;;;;;7.23;64.92;100821.06;5104738;27;20926;-73
2023/03/30 04:32:53;;;;;;;22.00;11.15;;;;;;;7.14;65.83;100807.47;5103873;27;20030;-72
2023/03/30 04:35:19;;;;;;;16.20;10.35;;;;;;;7.11;65.92;100797.00;5107008;27;20427;-73
2023/03/30 04:37:45;;;;;;;15.75;9.80;;;;;;;7.11;66.45;100797.00;5104805;28;20106;-73
2023/03/30 04:40:12;;;;;;;17.23;9.80;;;;;;;7.01;66.65;100802.09;5102157;28;20435;-72
2023/03/30 04:42:37;;;;;;;16.77;9.95;;;;;;;7.20;66.73;100833.75;5106684;28;20439;-73
2023/03/30 04:45:07;;;;;;;14.20;9.23;;;;;;;7.20;67.03;100820.41;5107054;28;20102;-72
2023/03/30 04:47:32;;;;;;;17.33;9.73;;;;;;;7.17;67.03;100818.81;5106323;28;20436;-72
2023/03/30 04:49:58;;;;;;;18.10;9.77;;;;;;;7.15;67.28;100826.03;5105156;28;20028;-73
2023/03/30 04:52:24;;;;;;;18.15;10.68;;;;;;;7.14;67.52;100819.00;5106439;28;20031;-72
2023/03/30 04:54:50;;;;;;;17.92;9.77;;;;;;;7.08;67.52;100822.06;5106241;28;20494;-72
2023/03/30 04:57:15;;;;;;;17.13;10.10;;;;;;;7.12;67.78;100828.91;5106358;28;20482;-72
2023/03/30 04:59:42;;;;;;;18.23;9.75;;;;;;;7.15;67.81;100827.88;5105340;28;20470;-72
2023/03/30 05:02:09;;;;;;;18.67;10.43;;;;;;;7.06;67.84;100810.63;5105832;28;20054;-77
2023/03/30 05:04:34;;;;;;;18.35;10.73;;;;;;;7.12;67.73;100825.41;5108337;28;20368;-76
2023/03/30 05:07:01;;;;;;;20.20;10.27;;;;;;;6.99;68.34;100798.66;5107680;28;20053;-77
2023/03/30 05:09:27;;;;;;;16.52;9.57;;;;;;;7.14;67.73;100820.81;5106627;28;20019;-77
2023/03/30 05:11:53;;;;;;;18.63;10.30;;;;;;;7.16;68.50;100817.06;5107486;28;20026;-77
2023/03/30 05:14:18;;;;;;;19.33;9.90;;;;;;;7.15;68.25;100811.88;5106543;28;20031;-77
2023/03/30 05:16:44;;;;;;;19.75;11.18;;;;;;;7.15;68.71;100798.53;5107762;28;20368;-77
2023/03/30 05:19:09;;;;;;;22.00;9.73;;;;;;;7.23;68.49;100809.53;5106449;28;20086;-77
2023/03/30 05:21:35;;;;;;;19.92;10.68;;;;;;;7.19;68.77;100803.53;5104903;28;20022;-77
2023/03/30 05:24:00;;;;;;;16.70;9.93;;;;;;;7.18;68.49;100787.63;5107084;28;20024;-77
2023/03/30 05:26:26;;;;;;;18.13;9.95;;;;;;;7.27;68.43;100803.03;5107534;28;20026;-78
2023/03/30 05:28:53;;;;;;;18.15;10.07;;;;;;;7.33;68.75;100803.50;5106030;28;20027;-77
2023/03/30 05:31:19;;;;;;;22.13;10.30;;;;;;;7.25;68.79;100788.97;5106587;28;20032;-77
2023/03/30 05:33:45;;;;;;;16.17;9.52;;;;;;;7.27;68.47;100781.69;5105713;28;20023;-78
2023/03/30 05:36:11;;;;;;;16.17;9.70;;;;;;;7.45;67.83;100796.47;5106690;28;20103;-78
2023/03/30 05:38:36;;;;;;;14.48;8.88;;;;;;;7.49;68.14;100804.19;5103621;28;20019;-77
2023/03/30 05:41:05;;;;;;;22.02;10.52;;;;;;;7.47;67.91;100802.53;5106021;28;20060;-77
2023/03/30 05:43:33;;;;;;;14.88;8.90;;;;;;;7.53;68.07;100802.13;5107020;28;20034;-77
2023/03/30 05:46:01;;;;;;;21.25;9.82;;;;;;;7.64;67.92;100811.13;5104209;28;20407;-77
2023/03/30 05:48:27;;;;;;;17.30;11.10;;;;;;;7.64;67.37;100799.63;5104068;28;20074;-77
2023/03/30 05:50:54;;;;;;;15.60;9.80;;;;;;;7.75;66.63;100791.72;5105609;27;20075;-78
2023/03/30 05:53:19;;;;;;;17.92;9.00;;;;;;;7.93;66.97;100809.97;5104885;28;20039;-77
2023/03/30 05:55:46;;;;;;;17.20;9.38;;;;;;;8.07;66.48;100809.91;5106635;28;20026;-78
2023/03/30 05:58:12;;;;;;;15.38;9.20;;;;;;;8.15;65.70;100802.19;5107072;28;20436;-77
2023/03/30 06:00:40;;;;;;;16.23;8.98;;;;;;;8.09;64.54;100780.41;5107944;28;20055;-77
2023/03/30 06:03:07;;;;;;;17.30;10.05;;;;;;;8.23;64.37;100786.53;5106646;28;20027;-77
2023/03/30 06:05:38;;;;;;;14.77;9.57;;;;;;;8.37;64.67;100797.09;5103183;28;20828;-77
2023/03/30 06:08:09;;;;;;;15.50;8.73;;;;;;;8.43;64.21;100795.78;5105217;28;20026;-77
2023/03/30 06:10:35;;;;;;;15.10;10.18;;;;;;;8.40;63.52;100786.19;5106655;28;20104;-77
2023/03/30 06:13:01;;;;;;;14.20;9.50;;;;;;;8.36;63.21;100779.34;5106519;28;20023;-77
2023/03/30 06:15:27;;;;;;;13.63;8.52;;;;;;;8.52;62.83;100797.81;5106463;28;20026;-77
2023/03/30 06:17:52;;;;;;;15.00;9.43;;;;;;;8.58;62.68;100794.69;5104699;28;20056;-77
2023/03/30 06:20:20;;;;;;;12.82;8.80;;;;;;;8.55;62.54;100785.06;5104744;28;20031;-77
2023/03/30 06:22:47;;;;;;;14.27;9.18;;;;;;;8.65;62.08;100786.09;5103732;28;20023;-77
2023/03/30 06:25:12;;;;;;;20.15;9.48;;;;;;;8.74;62.24;100797.97;5103928;28;20031;-77
2023/03/30 06:27:38;;;;;;;15.60;9.05;;;;;;;8.75;61.42;100776.47;5101342;28;20031;-77
2023/03/30 06:30:04;;;;;;;13.63;8.90;;;;;;;8.84;61.39;100790.97;5103288;28;20027;-77
2023/03/30 06:32:30;;;;;;;15.32;8.98;;;;;;;8.98;60.98;100804.19;5105458;28;20528;-77
2023/03/30 06:34:55;;;;;;;15.02;8.77;;;;;;;9.02;59.40;100786.94;5104210;28;20035;-77
2023/03/30 06:37:21;;;;;;;15.00;9.32;;;;;;;9.06;59.59;100781.25;5104942;28;20403;-77
2023/03/30 06:39:46;;;;;;;16.30;9.13;;;;;;;9.19;59.36;100787.41;5105810;28;20042;-78
2023/03/30 06:42:12;;;;;;;13.13;8.73;;;;;;;9.33;58.73;100781.84;5104445;28;20093;-77
2023/03/30 06:44:38;;;;;;;18.90;9.30;;;;;;;9.36;58.08;100758.50;5106247;28;20023;-77
2023/03/30 06:47:04;;;;;;;13.57;9.07;;;;;;;9.46;58.27;100763.06;5104494;28;20036;-77
2023/03/30 06:49:30;;;;;;;14.63;8.38;;;;;;;9.77;57.87;100772.28;5106274;28;20058;-77
2023/03/30 06:51:56;;;;;;;17.35;8.68;;;;;;;10.04;55.89;100760.25;5104363;28;20204;-78
2023/03/30 06:54:22;;;;;;;13.27;8.77;;;;;;;10.05;55.95;100743.19;5106087;28;20045;-78
2023/03/30 06:56:48;;;;;;;16.70;8.75;;;;;;;10.31;55.09;100776.88;5105580;28;20023;-77
2023/03/30 06:59:14;;;;;;;17.60;8.30;;;;;;;10.44;54.95;100774.06;5103870;28;20055;-77
2023/03/30 07:01:41;;;;;;;14.88;8.98;;;;;;;10.68;54.69;100769.41;5106086;28;20015;-78
2023/03/30 07:04:08;;;;;;;14.05;8.27;;;;;;;10.91;54.23;100774.63;5105490;28;20376;-78
2023/03/30 07:06:33;;;;;;;12.77;8.23;;;;;;;11.09;52.91;100756.13;5104562;28;20016;-78
2023/03/30 07:08:59;;;;;;;14.35;8.35;;;;;;;11.33;51.76;100754.94;5105621;28;20070;-78
2023/03/30 07:11:25;;;;;;;13.98;7.95;;;;;;;11.58;51.58;100737.59;5103999;28;20058;-78
2023/03/30 07:13:50;;;;;;;13.32;8.52;;;;;;;11.93;50.61;100751.56;5105255;28;20030;-78
2023/03/30 07:16:16;;;;;;;13.00;7.75;;;;;;;12.23;48.51;100719.31;5105534;28;20040;-78
2023/03/30 07:18:41;;;;;;;12.60;6.97;;;;;;;12.63;47.91;100730.06;5108099;28;20023;-78
2023/03/30 07:21:07;;;;;;;13.57;8.30;;;;;;;12.91;47.26;100723.88;5107899;28;20062;-78
2023/03/30 07:23:32;;;;;;;16.83;7.57;;;;;;;13.26;46.82;100741.22;5109204;28;20047;-79
2023/03/30 07:25:58;;;;;;;10.90;7.43;;;;;;;13.32;44.99;100704.81;5108188;28;20114;-78
2023/03/30 07:28:24;;;;;;;11.95;7.45;;;;;;;13.65;45.68;100736.69;5109437;28;20024;-78
2023/03/30 07:30:50;;;;;;;16.42;7.95;;;;;;;13.79;45.18;100752.41;5108166;28;20098;-78
2023/03/30 07:33:16;;;;;;;11.15;6.72;;;;;;;13.90;44.19;100749.56;5108884;28;20031;-78
2023/03/30 07:35:43;;;;;;;14.18;8.23;;;;;;;14.07;43.22;100748.81;5107850;28;20032;-78
2023/03/30 07:38:09;;;;;;;11.68;7.38;;;;;;;14.25;43.42;100759.72;5109238;28;20081;-78
2023/03/30 07:40:34;;;;;;;12.93;7.38;;;;;;;14.33;43.41;100762.50;5108859;28;20015;-78
2023/03/30 07:43:00;;;;;;;12.18;8.63;;;;;;;14.28;43.06;100762.13;5109370;28;20027;-77
2023/03/30 07:45:25;;;;;;;12.60;7.78;;;;;;;14.29;43.10;100759.28;5108598;28;20032;-77
2023/03/30 07:47:51;;;;;;;17.00;7.93;;;;;;;14.32;42.99;100772.44;5108966;27;20047;-77
2023/03/30 07:50:16;;;;;;;12.40;7.55;;;;;;;14.15;43.58;100753.47;5107605;28;20478;-77
2023/03/30 07:52:42;;;;;;;14.57;8.40;;;;;;;14.21;43.99;100761.81;5108976;28;20169;-77
2023/03/30 07:55:08;;;;;;;11.82;8.15;;;;;;;14.31;43.85;100754.56;5107306;28;20023;-77
2023/03/30 07:57:33;;;;;;;16.35;7.97;;;;;;;14.43;43.17;100750.69;5107172;28;20110;-77
2023/03/30 07:59:59;;;;;;;13.43;8.20;;;;;;;14.42;43.10;100727.41;5107683;28;20402;-77
2023/03/30 08:02:24;;;;;;;12.43;8.40;;;;;;;14.70;43.24;100742.59;5108861;28;20015;-77
2023/03/30 08:04:51;;;;;;;12.02;7.68;;;;;;;15.06;42.37;100733.53;5108491;28;20038;-77
2023/03/30 08:07:17;;;;;;;10.43;7.80;;;;;;;15.52;41.48;100708.16;5108619;28;20020;-77
2023/03/30 08:09:44;;;;;;;13.57;7.22;;;;;;;16.35;40.48;100723.75;5106741;28;20018;-77
2023/03/30 08:12:10;;;;;;;13.52;8.10;;;;;;;17.30;38.90;100723.25;5108714;28;20027;-77
2023/03/30 08:14:36;;;;;;;11.20;7.22;;;;;;;18.21;36.51;100715.75;5108493;28;20028;-77
2023/03/30 08:17:02;;;;;;;15.75;7.72;;;;;;;18.47;36.04;100724.53;5108210;28;20031;-77
2023/03/30 08:19:28;;;;;;;11.73;7.20;;;;;;;18.56;35.61;100724.31;5108025;28;20100;-71
2023/03/30 08:21:55;;;;;;;9.57;7.32;;;;;;;18.55;35.51;100719.06;5107154;28;20590;-72
2023/03/30 08:24:21;;;;;;;8.38;7.28;;;;;;;18.85;35.06;100710.94;5106912;28;20023;-72
2023/03/30 08:26:46;;;;;;;10.05;7.75;;;;;;;19.02;34.81;100728.84;5105123;28;20088;-72
2023/03/30 08:29:12;;;;;;;15.35;7.93;;;;;;;18.97;34.91;100714.09;5104490;28;20020;-73
2023/03/30 08:31:38;;;;;;;11.23;7.28;;;;;;;19.32;34.50;100719.00;5107211;28;20024;-72
2023/03/30 08:34:03;;;;;;;11.88;7.30;;;;;;;19.56;33.40;100716.06;5106846;28;20120;-72
2023/03/30 08:36:29;;;;;;;14.23;8.27;;;;;;;19.26;33.85;100706.97;5106380;28;20027;-71
2023/03/30 08:38:55;;;;;;;11.38;7.40;;;;;;;18.74;34.18;100694.19;5106253;28;20016;-71
2023/03/30 08:41:23;;;;;;;9.05;6.93;;;;;;;18.41;34.93;100712.47;5106372;28;20027;-71
2023/03/30 08:44:21;;;;;;;9.23;7.00;;;;;;;17.87;35.77;100702.41;5105864;28;20027;-71
2023/03/30 08:46:48;;;;;;;9.77;6.88;;;;;;;17.25;36.52;100684.09;5087524;28;20126;-72
2023/03/30 08:49:17;;;;;;;10.82;7.10;;;;;;;16.90;37.38;100687.94;5104657;28;20075;-71
2023/03/30 08:51:43;;;;;;;12.80;7.40;;;;;;;16.69;37.75;100694.81;5105842;28;20031;-71
2023/03/30 08:54:15;;;;;;;10.35;6.90;;;;;;;16.42;38.79;100695.03;5103606;28;20474;-72
2023/03/30 08:57:08;;;;;;;10.18;7.53;;;;;;;16.33;39.14;100704.97;5105849;28;20023;-72
2023/03/30 08:59:42;;;;;;;12.95;6.95;;;;;;;16.19;39.45;100696.63;5105935;28;20031;-71
2023/03/30 09:02:31;;;;;;;10.30;6.18;;;;;;;16.06;39.89;100699.78;5106054;28;20046;-71
2023/03/30 09:05:23;;;;;;;16.38;7.22;;;;;;;16.04;39.81;100690.94;5104799;28;20106;-72
2023/03/30 09:07:54;;;;;;;10.43;7.07;;;;;;;16.15;40.19;100692.53;5105422;28;20115;-71
2023/03/30 09:10:21;;;;;;;9.23;6.72;;;;;;;16.44;39.20;100695.75;5103492;28;20053;-71
2023/03/30 09:12:53;;;;;;;12.23;7.25;;;;;;;16.52;39.18;100684.94;5105392;28;20115;-71
2023/03/30 09:15:37;;;;;;;11.25;6.30;;;;;;;16.41;39.50;100680.63;5105702;28;20031;-72
2023/03/30 09:18:13;;;;;;;10.88;6.63;;;;;;;16.35;39.48;100680.44;5100531;28;20118;-71
2023/03/30 09:20:40;;;;;;;12.52;6.22;;;;;;;16.22;39.39;100652.97;5105553;28;20051;-71
2023/03/30 09:23:12;;;;;;;10.73;6.82;;;;;;;16.51;39.03;100658.88;5105440;28;20024;-71
2023/03/30 09:25:52;;;;;;;11.05;6.60;;;;;;;17.01;38.47;100671.38;5103915;28;20023;-71
2023/03/30 09:28:26;;;;;;;12.15;6.53;;;;;;;18.15;36.13;100652.13;5103820;28;20023;-71
2023/03/30 09:31:21;;;;;;;12.88;6.65;;;;;;;19.34;34.83;100648.91;5104803;28;20109;-71
2023/03/30 09:33:59;;;;;;;11.27;6.82;;;;;;;19.84;33.77;100655.44;5103578;28;20019;-71
2023/03/30 09:36:26;;;;;;;9.48;6.30;;;;;;;19.93;33.71;100654.28;5104937;28;20042;-71
2023/03/30 09:38:51;;;;;;;9.95;6.45;;;;;;;19.93;33.39;100658.91;5103844;28;20466;-71
2023/03/30 09:41:55;;;;;;;11.02;6.68;;;;;;;19.63;34.05;100651.72;5104611;28;20106;-75
2023/03/30 09:44:34;;;;;;;10.50;6.13;;;;;;;19.41;34.28;100648.00;5105511;28;20023;-76
2023/03/30 09:47:01;;;;;;;8.93;6.63;;;;;;;19.00;34.73;100652.06;5105527;28;20904;-75
2023/03/30 09:49:32;;;;;;;11.70;6.68;;;;;;;18.92;35.12;100649.38;5104585;28;20047;-74
2023/03/30 09:52:04;;;;;;;11.80;6.25;;;;;;;18.91;35.81;100644.13;5106221;28;20026;-74
2023/03/30 09:54:38;;;;;;;14.40;7.05;;;;;;;19.01;35.55;100652.88;5104217;28;20062;-74
2023/03/30 09:57:04;;;;;;;12.02;7.30;;;;;;;18.86;35.36;100631.06;5105509;28;20305;-74
2023/03/30 09:59:30;;;;;;;12.57;7.18;;;;;;;18.71;35.35;100637.47;5103149;28;20027;-75
2023/03/30 10:02:17;;;;;;;9.73;5.88;;;;;;;18.47;35.95;100641.16;5103439;28;20019;-75
2023/03/30 10:05:16;;;;;;;12.70;7.13;;;;;;;18.24;36.57;100632.06;5103625;28;20049;-75
2023/03/30 10:07:42;;;;;;;11.52;7.47;;;;;;;18.13;36.62;100626.16;5102137;28;20031;-75
2023/03/30 10:10:19;;;;;;;10.57;6.95;;;;;;;17.99;37.04;100630.44;5104598;28;20058;-75
2023/03/30 10:12:48;;;;;;;12.27;6.93;;;;;;;17.83;37.20;100627.78;5102351;28;20027;-74
2023/03/30 10:15:17;;;;;;;9.60;7.30;;;;;;;17.71;37.32;100629.19;5105170;28;20031;-74
2023/03/30 10:17:46;;;;;;;12.32;7.15;;;;;;;17.44;37.95;100611.41;5104739;28;20031;-74
2023/03/30 10:20:37;;;;;;;11.13;6.95;;;;;;;17.38;38.15;100612.06;5103393;28;20032;-73
2023/03/30 10:23:11;;;;;;;10.05;6.47;;;;;;;17.16;39.13;100595.66;5101701;28;20042;-74
2023/03/30 10:25:41;;;;;;;12.57;7.47;;;;;;;17.13;38.91;100607.69;5104160;28;20031;-75
2023/03/30 10:28:20;;;;;;;10.75;6.93;;;;;;;17.00;39.21;100615.47;5104586;28;20027;-73
2023/03/30 10:30:58;;;;;;;8.98;6.65;;;;;;;16.93;39.35;100616.31;5103525;28;20392;-74
2023/03/30 10:33:24;;;;;;;10.25;6.82;;;;;;;16.78;39.82;100593.59;5104668;28;20027;-74
2023/03/30 10:35:52;;;;;;;13.15;7.05;;;;;;;16.80;39.99;100586.16;5103978;28;20023;-74
2023/03/30 10:38:19;;;;;;;10.23;6.25;;;;;;;17.02;39.31;100609.88;5101978;28;20032;-74
2023/03/30 10:40:46;;;;;;;7.72;6.10;;;;;;;16.96;39.69;100587.00;5103833;28;20051;-73
2023/03/30 10:43:26;;;;;;;10.00;6.20;;;;;;;17.01;39.74;100587.34;5104358;28;20402;-74
2023/03/30 10:45:55;;;;;;;9.82;5.88;;;;;;;17.17;39.90;100595.47;5102989;28;20024;-74
2023/03/30 10:48:27;;;;;;;10.70;5.80;;;;;;;17.30;39.72;100584.13;5103320;28;20507;-74
2023/03/30 10:51:13;;;;;;;10.02;6.60;;;;;;;17.35;39.55;100589.88;5104397;28;20036;-74
2023/03/30 10:53:43;;;;;;;12.02;6.00;;;;;;;17.49;39.88;100567.50;5106517;28;20042;-74
2023/03/30 10:56:26;;;;;;;12.70;7.05;;;;;;;17.43;39.52;100539.22;5107438;28;20034;-74
2023/03/30 10:59:04;;;;;;;10.68;6.63;;;;;;;17.63;39.56;100558.66;5108119;28;20047;-74
2023/03/30 11:01:48;;;;;;;9.55;6.22;;;;;;;17.72;39.40;100573.88;5107453;28;20042;-73
2023/03/30 11:04:33;;;;;;;8.15;5.78;;;;;;;17.70;38.93;100559.63;5106262;28;20028;-73
2023/03/30 11:07:00;;;;;;;10.18;5.97;;;;;;;17.83;39.49;100560.78;5105731;28;20046;-73
2023/03/30 11:09:31;;;;;;;13.73;6.55;;;;;;;17.76;39.53;100538.09;5108566;28;20046;-74
2023/03/30 11:12:18;;;;;;;7.82;5.63;;;;;;;17.72;39.69;100527.78;5106517;28;20031;-74
2023/03/30 11:15:11;;;;;;;9.32;6.30;;;;;;;17.93;39.15;100547.03;5107866;28;20038;-74
2023/03/30 11:17:47;;;;;;;10.00;5.93;;;;;;;17.82;39.30;100537.41;5108516;28;20730;-74
2023/03/30 11:20:32;;;;;;;10.70;5.93;;;;;;;17.76;39.96;100535.38;5108381;28;20055;-74
2023/03/30 11:23:10;;;;;;;9.75;6.10;;;;;;;17.79;39.76;100542.31;5107246;28;20064;-73
2023/03/30 11:26:00;;;;;;;8.75;5.55;;;;;;;17.75;40.29;100532.84;5107671;28;20019;-73
2023/03/30 11:28:41;;;;;;;9.75;6.30;;;;;;;17.81;40.14;100530.28;5107297;28;20047;-74
2023/03/30 11:31:45;;;;;;;10.27;5.97;;;;;;;17.63;40.18;100507.09;5105990;28;20035;-73
2023/03/30 11:34:10;;;;;;;10.88;6.22;;;;;;;17.74;40.49;100525.75;5073144;28;20590;-73
2023/03/30 11:36:50;;;;;;;12.98;7.13;;;;;;;17.65;40.61;100502.38;5105991;28;20085;-73